sensor_id;sensor_type;location;lat;lon;timestamp;temperature;humidity
20759;DHT22;10539;53.686;9.158;2022-09-09T00:00:18;15.40;99.90
20759;DHT22;10539;53.686;9.158;2022-09-09T00:02:57;15.40;99.90
20759;DHT22;10539;53.686;9.158;2022-09-09T00:05:44;15.40;99.90
20759;DHT22;10539;53.686;9.158;2022-09-09T00:08:21;15.40;99.90
20759;DHT22;10539;53.686;9.158;2022-09-09T00:11:08;15.40;99.90
20759;DHT22;10539;53.686;9.158;2022-09-09T00:13:45;15.40;99.90
20759;DHT22;10539;53.686;9.158;2022-09-09T00:16:22;15.40;99.90
20759;DHT22;10539;53.686;9.158;2022-09-09T00:18:57;15.30;99.90
20759;DHT22;10539;53.686;9.158;2022-09-09T00:21:36;15.30;99.90
20759;DHT22;10539;53.686;9.158;2022-09-09T00:24:23;15.30;99.90
20759;DHT22;10539;53.686;9.158;2022-09-09T00:26:56;15.30;99.90
20759;DHT22;10539;53.686;9.158;2022-09-09T00:29:49;15.30;99.90
20759;DHT22;10539;53.686;9.158;2022-09-09T00:32:20;15.30;99.90
20759;DHT22;10539;53.686;9.158;2022-09-09T00:35:27;15.30;99.90
20759;DHT22;10539;53.686;9.158;2022-09-09T00:37:58;15.20;99.90
20759;DHT22;10539;53.686;9.158;2022-09-09T00:40:34;15.20;99.90
20759;DHT22;10539;53.686;9.158;2022-09-09T00:43:24;15.20;99.90
20759;DHT22;10539;53.686;9.158;2022-09-09T00:49:06;15.20;99.90
20759;DHT22;10539;53.686;9.158;2022-09-09T00:52:11;15.30;99.90
20759;DHT22;10539;53.686;9.158;2022-09-09T00:57:32;15.30;99.90
20759;DHT22;10539;53.686;9.158;2022-09-09T01:00:21;15.30;99.90
20759;DHT22;10539;53.686;9.158;2022-09-09T01:08:08;15.30;99.90
20759;DHT22;10539;53.686;9.158;2022-09-09T01:10:53;15.30;99.90
20759;DHT22;10539;53.686;9.158;2022-09-09T01:13:28;15.30;99.90
20759;DHT22;10539;53.686;9.158;2022-09-09T01:15:58;15.30;99.90
20759;DHT22;10539;53.686;9.158;2022-09-09T01:18:40;15.30;99.90
20759;DHT22;10539;53.686;9.158;2022-09-09T01:26:44;15.30;99.90
20759;DHT22;10539;53.686;9.158;2022-09-09T01:29:13;15.30;99.90
20759;DHT22;10539;53.686;9.158;2022-09-09T01:32:03;15.30;99.90
20759;DHT22;10539;53.686;9.158;2022-09-09T01:34:31;15.30;99.90
20759;DHT22;10539;53.686;9.158;2022-09-09T01:37:09;15.30;99.90
20759;DHT22;10539;53.686;9.158;2022-09-09T01:39:37;15.30;99.90
20759;DHT22;10539;53.686;9.158;2022-09-09T01:42:06;15.30;99.90
20759;DHT22;10539;53.686;9.158;2022-09-09T01:44:32;15.30;99.90
20759;DHT22;10539;53.686;9.158;2022-09-09T01:46:58;15.30;99.90
20759;DHT22;10539;53.686;9.158;2022-09-09T01:49:23;15.30;99.90
20759;DHT22;10539;53.686;9.158;2022-09-09T01:51:53;15.30;99.90
20759;DHT22;10539;53.686;9.158;2022-09-09T01:54:24;15.30;99.90
20759;DHT22;10539;53.686;9.158;2022-09-09T02:02:03;15.30;99.90
20759;DHT22;10539;53.686;9.158;2022-09-09T02:04:56;15.30;99.90
20759;DHT22;10539;53.686;9.158;2022-09-09T02:08:05;15.20;99.90
20759;DHT22;10539;53.686;9.158;2022-09-09T02:13:37;15.20;99.90
20759;DHT22;10539;53.686;9.158;2022-09-09T02:16:10;15.20;99.90
20759;DHT22;10539;53.686;9.158;2022-09-09T02:18:48;15.20;99.90
20759;DHT22;10539;53.686;9.158;2022-09-09T02:21:17;15.20;99.90
20759;DHT22;10539;53.686;9.158;2022-09-09T02:23:44;15.20;99.90
20759;DHT22;10539;53.686;9.158;2022-09-09T02:26:13;15.10;99.90
20759;DHT22;10539;53.686;9.158;2022-09-09T02:28:46;15.10;99.90
20759;DHT22;10539;53.686;9.158;2022-09-09T02:31:14;15.10;99.90
20759;DHT22;10539;53.686;9.158;2022-09-09T02:33:44;15.10;99.90
20759;DHT22;10539;53.686;9.158;2022-09-09T02:36:13;15.10;99.90
20759;DHT22;10539;53.686;9.158;2022-09-09T02:38:45;15.10;99.90
20759;DHT22;10539;53.686;9.158;2022-09-09T02:41:19;15.10;99.90
20759;DHT22;10539;53.686;9.158;2022-09-09T02:43:47;15.10;99.90
20759;DHT22;10539;53.686;9.158;2022-09-09T02:51:46;15.00;99.90
20759;DHT22;10539;53.686;9.158;2022-09-09T02:54:29;15.00;99.90
20759;DHT22;10539;53.686;9.158;2022-09-09T02:57:19;15.00;99.90
20759;DHT22;10539;53.686;9.158;2022-09-09T02:59:46;15.00;99.90
20759;DHT22;10539;53.686;9.158;2022-09-09T03:02:13;14.90;99.90
20759;DHT22;10539;53.686;9.158;2022-09-09T03:04:39;14.90;99.90
20759;DHT22;10539;53.686;9.158;2022-09-09T03:07:05;14.90;99.90
20759;DHT22;10539;53.686;9.158;2022-09-09T03:09:31;14.90;99.90
20759;DHT22;10539;53.686;9.158;2022-09-09T03:11:58;14.90;99.90
20759;DHT22;10539;53.686;9.158;2022-09-09T03:14:24;14.90;99.90
20759;DHT22;10539;53.686;9.158;2022-09-09T03:16:54;14.90;99.90
20759;DHT22;10539;53.686;9.158;2022-09-09T03:19:20;14.90;99.90
20759;DHT22;10539;53.686;9.158;2022-09-09T03:21:47;14.90;99.90
20759;DHT22;10539;53.686;9.158;2022-09-09T03:24:14;14.90;99.90
20759;DHT22;10539;53.686;9.158;2022-09-09T03:26:41;14.80;99.90
20759;DHT22;10539;53.686;9.158;2022-09-09T03:29:11;14.90;99.90
20759;DHT22;10539;53.686;9.158;2022-09-09T03:31:38;14.90;99.90
20759;DHT22;10539;53.686;9.158;2022-09-09T03:34:04;14.80;99.90
20759;DHT22;10539;53.686;9.158;2022-09-09T03:36:30;14.90;99.90
20759;DHT22;10539;53.686;9.158;2022-09-09T03:38:56;14.80;99.90
20759;DHT22;10539;53.686;9.158;2022-09-09T03:41:23;14.80;99.90
20759;DHT22;10539;53.686;9.158;2022-09-09T03:43:53;14.80;99.90
20759;DHT22;10539;53.686;9.158;2022-09-09T03:46:20;14.80;99.90
20759;DHT22;10539;53.686;9.158;2022-09-09T03:48:46;14.80;99.90
20759;DHT22;10539;53.686;9.158;2022-09-09T03:51:13;14.90;99.90
20759;DHT22;10539;53.686;9.158;2022-09-09T03:53:39;14.90;99.90
20759;DHT22;10539;53.686;9.158;2022-09-09T03:56:06;14.90;99.90
20759;DHT22;10539;53.686;9.158;2022-09-09T03:58:33;14.80;99.90
20759;DHT22;10539;53.686;9.158;2022-09-09T04:01:04;14.80;99.90
20759;DHT22;10539;53.686;9.158;2022-09-09T04:03:31;14.80;99.90
20759;DHT22;10539;53.686;9.158;2022-09-09T04:05:59;14.70;99.90
20759;DHT22;10539;53.686;9.158;2022-09-09T04:08:25;14.70;99.90
20759;DHT22;10539;53.686;9.158;2022-09-09T04:10:51;14.70;99.90
20759;DHT22;10539;53.686;9.158;2022-09-09T04:13:18;14.70;99.90
20759;DHT22;10539;53.686;9.158;2022-09-09T04:15:51;14.70;99.90
20759;DHT22;10539;53.686;9.158;2022-09-09T04:18:17;14.70;99.90
20759;DHT22;10539;53.686;9.158;2022-09-09T04:20:42;14.70;99.90
20759;DHT22;10539;53.686;9.158;2022-09-09T04:23:09;14.60;99.90
20759;DHT22;10539;53.686;9.158;2022-09-09T04:25:34;14.60;99.90
20759;DHT22;10539;53.686;9.158;2022-09-09T04:28:00;14.60;99.90
20759;DHT22;10539;53.686;9.158;2022-09-09T04:30:26;14.70;99.90
20759;DHT22;10539;53.686;9.158;2022-09-09T04:32:52;14.70;99.90
20759;DHT22;10539;53.686;9.158;2022-09-09T04:35:18;14.70;99.90
20759;DHT22;10539;53.686;9.158;2022-09-09T04:37:45;14.70;99.90
20759;DHT22;10539;53.686;9.158;2022-09-09T04:40:11;14.60;99.90
20759;DHT22;10539;53.686;9.158;2022-09-09T04:42:38;14.70;99.90
20759;DHT22;10539;53.686;9.158;2022-09-09T04:45:05;14.70;99.90
20759;DHT22;10539;53.686;9.158;2022-09-09T04:47:32;14.70;99.90
20759;DHT22;10539;53.686;9.158;2022-09-09T04:49:59;14.70;99.90
20759;DHT22;10539;53.686;9.158;2022-09-09T04:52:26;14.70;99.90
20759;DHT22;10539;53.686;9.158;2022-09-09T04:54:51;14.70;99.90
20759;DHT22;10539;53.686;9.158;2022-09-09T04:57:19;14.80;99.90
20759;DHT22;10539;53.686;9.158;2022-09-09T04:59:45;14.80;99.90
20759;DHT22;10539;53.686;9.158;2022-09-09T05:02:11;14.80;99.90
20759;DHT22;10539;53.686;9.158;2022-09-09T05:04:37;14.80;99.90
20759;DHT22;10539;53.686;9.158;2022-09-09T05:07:03;14.90;99.90
20759;DHT22;10539;53.686;9.158;2022-09-09T05:09:28;14.90;99.90
20759;DHT22;10539;53.686;9.158;2022-09-09T05:11:54;14.90;99.90
20759;DHT22;10539;53.686;9.158;2022-09-09T05:14:20;14.90;99.90
20759;DHT22;10539;53.686;9.158;2022-09-09T05:16:46;14.90;99.90
20759;DHT22;10539;53.686;9.158;2022-09-09T05:19:12;14.90;99.90
20759;DHT22;10539;53.686;9.158;2022-09-09T05:21:38;15.00;99.90
20759;DHT22;10539;53.686;9.158;2022-09-09T05:24:04;15.00;99.90
20759;DHT22;10539;53.686;9.158;2022-09-09T05:26:29;15.00;99.90
20759;DHT22;10539;53.686;9.158;2022-09-09T05:28:55;15.00;99.90
20759;DHT22;10539;53.686;9.158;2022-09-09T05:31:22;15.00;99.90
20759;DHT22;10539;53.686;9.158;2022-09-09T05:33:48;15.00;99.90
20759;DHT22;10539;53.686;9.158;2022-09-09T05:36:20;15.00;99.90
20759;DHT22;10539;53.686;9.158;2022-09-09T05:38:46;15.00;99.90
20759;DHT22;10539;53.686;9.158;2022-09-09T05:41:13;15.10;99.90
20759;DHT22;10539;53.686;9.158;2022-09-09T05:43:42;15.10;99.90
20759;DHT22;10539;53.686;9.158;2022-09-09T05:46:17;15.10;99.90
20759;DHT22;10539;53.686;9.158;2022-09-09T05:48:45;15.20;99.90
20759;DHT22;10539;53.686;9.158;2022-09-09T05:51:21;15.20;99.90
20759;DHT22;10539;53.686;9.158;2022-09-09T05:53:48;15.30;99.90
20759;DHT22;10539;53.686;9.158;2022-09-09T05:56:19;15.30;99.90
20759;DHT22;10539;53.686;9.158;2022-09-09T05:58:46;15.40;99.90
20759;DHT22;10539;53.686;9.158;2022-09-09T06:01:17;15.40;99.90
20759;DHT22;10539;53.686;9.158;2022-09-09T06:03:45;15.50;99.90
20759;DHT22;10539;53.686;9.158;2022-09-09T06:06:13;15.50;99.90
20759;DHT22;10539;53.686;9.158;2022-09-09T06:08:41;15.50;99.90
20759;DHT22;10539;53.686;9.158;2022-09-09T06:11:11;15.60;99.90
20759;DHT22;10539;53.686;9.158;2022-09-09T06:13:38;15.60;99.90
20759;DHT22;10539;53.686;9.158;2022-09-09T06:16:08;15.70;99.90
20759;DHT22;10539;53.686;9.158;2022-09-09T06:18:34;15.70;99.90
20759;DHT22;10539;53.686;9.158;2022-09-09T06:21:02;15.70;99.90
20759;DHT22;10539;53.686;9.158;2022-09-09T06:23:30;15.80;99.90
20759;DHT22;10539;53.686;9.158;2022-09-09T06:26:17;15.80;99.90
20759;DHT22;10539;53.686;9.158;2022-09-09T06:28:48;15.80;99.90
20759;DHT22;10539;53.686;9.158;2022-09-09T06:31:17;15.80;99.90
20759;DHT22;10539;53.686;9.158;2022-09-09T06:33:44;15.80;99.90
20759;DHT22;10539;53.686;9.158;2022-09-09T06:36:12;15.80;99.90
20759;DHT22;10539;53.686;9.158;2022-09-09T06:38:39;15.70;99.90
20759;DHT22;10539;53.686;9.158;2022-09-09T06:41:05;15.70;99.90
20759;DHT22;10539;53.686;9.158;2022-09-09T06:43:31;15.80;99.90
20759;DHT22;10539;53.686;9.158;2022-09-09T06:48:23;15.80;99.90
20759;DHT22;10539;53.686;9.158;2022-09-09T06:51:05;15.90;99.90
20759;DHT22;10539;53.686;9.158;2022-09-09T06:53:33;15.90;99.90
20759;DHT22;10539;53.686;9.158;2022-09-09T06:56:42;15.90;99.90
20759;DHT22;10539;53.686;9.158;2022-09-09T06:58:50;16.00;99.90
20759;DHT22;10539;53.686;9.158;2022-09-09T07:01:22;16.10;99.90
20759;DHT22;10539;53.686;9.158;2022-09-09T07:03:51;16.10;99.90
20759;DHT22;10539;53.686;9.158;2022-09-09T07:06:38;16.10;99.90
20759;DHT22;10539;53.686;9.158;2022-09-09T07:09:10;16.20;99.90
20759;DHT22;10539;53.686;9.158;2022-09-09T07:11:46;16.20;99.90
20759;DHT22;10539;53.686;9.158;2022-09-09T07:14:13;16.20;99.90
20759;DHT22;10539;53.686;9.158;2022-09-09T07:16:43;16.30;99.90
20759;DHT22;10539;53.686;9.158;2022-09-09T07:19:10;16.30;99.90
20759;DHT22;10539;53.686;9.158;2022-09-09T07:21:36;16.40;99.90
20759;DHT22;10539;53.686;9.158;2022-09-09T07:24:02;16.40;99.90
20759;DHT22;10539;53.686;9.158;2022-09-09T07:26:29;16.40;99.90
20759;DHT22;10539;53.686;9.158;2022-09-09T07:28:56;16.50;99.90
20759;DHT22;10539;53.686;9.158;2022-09-09T07:31:29;16.60;99.90
20759;DHT22;10539;53.686;9.158;2022-09-09T07:33:59;16.60;99.90
20759;DHT22;10539;53.686;9.158;2022-09-09T07:36:28;16.60;99.90
20759;DHT22;10539;53.686;9.158;2022-09-09T07:38:57;16.70;99.90
20759;DHT22;10539;53.686;9.158;2022-09-09T07:41:24;16.70;99.90
20759;DHT22;10539;53.686;9.158;2022-09-09T07:43:51;16.80;99.90
20759;DHT22;10539;53.686;9.158;2022-09-09T07:46:20;16.80;99.90
20759;DHT22;10539;53.686;9.158;2022-09-09T07:48:48;16.90;99.90
20759;DHT22;10539;53.686;9.158;2022-09-09T07:51:23;17.00;99.90
20759;DHT22;10539;53.686;9.158;2022-09-09T07:53:53;17.10;99.90
20759;DHT22;10539;53.686;9.158;2022-09-09T07:56:19;17.10;99.90
20759;DHT22;10539;53.686;9.158;2022-09-09T07:58:48;17.20;99.90
20759;DHT22;10539;53.686;9.158;2022-09-09T08:01:20;17.30;99.90
20759;DHT22;10539;53.686;9.158;2022-09-09T08:03:51;17.30;99.90
20759;DHT22;10539;53.686;9.158;2022-09-09T08:06:18;17.30;99.90
20759;DHT22;10539;53.686;9.158;2022-09-09T08:08:43;17.20;99.90
20759;DHT22;10539;53.686;9.158;2022-09-09T08:11:12;17.30;99.90
20759;DHT22;10539;53.686;9.158;2022-09-09T08:13:39;17.30;99.90
20759;DHT22;10539;53.686;9.158;2022-09-09T08:18:35;17.50;99.90
20759;DHT22;10539;53.686;9.158;2022-09-09T08:21:18;17.60;99.90
20759;DHT22;10539;53.686;9.158;2022-09-09T08:23:46;17.70;99.90
20759;DHT22;10539;53.686;9.158;2022-09-09T08:26:21;17.80;99.90
20759;DHT22;10539;53.686;9.158;2022-09-09T08:28:51;17.80;99.90
20759;DHT22;10539;53.686;9.158;2022-09-09T08:31:23;17.90;99.90
20759;DHT22;10539;53.686;9.158;2022-09-09T08:33:50;18.00;99.90
20759;DHT22;10539;53.686;9.158;2022-09-09T08:36:21;18.10;99.90
20759;DHT22;10539;53.686;9.158;2022-09-09T08:38:48;18.20;99.90
20759;DHT22;10539;53.686;9.158;2022-09-09T08:47:04;18.70;99.90
20759;DHT22;10539;53.686;9.158;2022-09-09T08:49:38;18.90;99.90
20759;DHT22;10539;53.686;9.158;2022-09-09T08:52:14;18.90;99.90
20759;DHT22;10539;53.686;9.158;2022-09-09T08:54:41;19.00;99.90
20759;DHT22;10539;53.686;9.158;2022-09-09T08:57:14;19.00;99.90
20759;DHT22;10539;53.686;9.158;2022-09-09T08:59:40;19.10;99.90
20759;DHT22;10539;53.686;9.158;2022-09-09T09:04:59;19.20;99.90
20759;DHT22;10539;53.686;9.158;2022-09-09T09:16:25;19.60;99.90
20759;DHT22;10539;53.686;9.158;2022-09-09T09:18:53;19.60;99.90
20759;DHT22;10539;53.686;9.158;2022-09-09T09:24:34;19.80;99.90
20759;DHT22;10539;53.686;9.158;2022-09-09T09:27:14;19.90;99.90
20759;DHT22;10539;53.686;9.158;2022-09-09T09:29:41;20.00;99.90
20759;DHT22;10539;53.686;9.158;2022-09-09T09:32:12;20.00;99.90
20759;DHT22;10539;53.686;9.158;2022-09-09T09:34:40;20.10;99.90
20759;DHT22;10539;53.686;9.158;2022-09-09T09:37:20;20.10;99.90
20759;DHT22;10539;53.686;9.158;2022-09-09T09:39:46;20.20;99.90
20759;DHT22;10539;53.686;9.158;2022-09-09T09:42:14;20.30;99.90
20759;DHT22;10539;53.686;9.158;2022-09-09T09:44:41;20.30;99.90
20759;DHT22;10539;53.686;9.158;2022-09-09T09:49:58;20.40;99.90
20759;DHT22;10539;53.686;9.158;2022-09-09T09:52:26;20.50;99.90
20759;DHT22;10539;53.686;9.158;2022-09-09T09:54:54;20.60;99.90
20759;DHT22;10539;53.686;9.158;2022-09-09T09:57:28;20.80;99.90
20759;DHT22;10539;53.686;9.158;2022-09-09T10:00:24;20.90;99.90
20759;DHT22;10539;53.686;9.158;2022-09-09T10:02:50;20.90;99.90
20759;DHT22;10539;53.686;9.158;2022-09-09T10:05:23;20.90;99.90
20759;DHT22;10539;53.686;9.158;2022-09-09T10:08:12;20.80;99.90
20759;DHT22;10539;53.686;9.158;2022-09-09T10:13:29;21.00;99.90
20759;DHT22;10539;53.686;9.158;2022-09-09T10:19:01;21.10;99.90
20759;DHT22;10539;53.686;9.158;2022-09-09T10:25:10;21.20;99.90
20759;DHT22;10539;53.686;9.158;2022-09-09T10:35:31;21.60;99.90
20759;DHT22;10539;53.686;9.158;2022-09-09T10:38:11;21.70;99.90
20759;DHT22;10539;53.686;9.158;2022-09-09T10:56:54;21.90;99.90
20759;DHT22;10539;53.686;9.158;2022-09-09T10:59:36;22.00;99.90
20759;DHT22;10539;53.686;9.158;2022-09-09T11:02:17;22.20;99.90
20759;DHT22;10539;53.686;9.158;2022-09-09T11:08:09;22.40;99.90
20759;DHT22;10539;53.686;9.158;2022-09-09T11:13:44;22.30;99.90
20759;DHT22;10539;53.686;9.158;2022-09-09T11:16:29;22.30;99.90
20759;DHT22;10539;53.686;9.158;2022-09-09T11:19:01;22.40;99.90
20759;DHT22;10539;53.686;9.158;2022-09-09T11:21:32;22.50;99.90
20759;DHT22;10539;53.686;9.158;2022-09-09T11:24:03;22.40;99.90
20759;DHT22;10539;53.686;9.158;2022-09-09T11:26:45;22.30;99.90
20759;DHT22;10539;53.686;9.158;2022-09-09T11:29:21;22.10;99.90
20759;DHT22;10539;53.686;9.158;2022-09-09T11:40:41;22.10;99.90
20759;DHT22;10539;53.686;9.158;2022-09-09T11:45:41;22.50;99.90
20759;DHT22;10539;53.686;9.158;2022-09-09T11:48:32;22.70;99.90
20759;DHT22;10539;53.686;9.158;2022-09-09T11:51:09;22.70;99.90
20759;DHT22;10539;53.686;9.158;2022-09-09T11:53:51;22.70;99.90
20759;DHT22;10539;53.686;9.158;2022-09-09T11:56:45;22.80;99.90
20759;DHT22;10539;53.686;9.158;2022-09-09T11:59:27;22.90;99.90
20759;DHT22;10539;53.686;9.158;2022-09-09T12:01:59;22.90;99.90
20759;DHT22;10539;53.686;9.158;2022-09-09T12:04:31;23.00;99.90
20759;DHT22;10539;53.686;9.158;2022-09-09T12:07:24;23.00;99.90
20759;DHT22;10539;53.686;9.158;2022-09-09T12:09:56;23.00;99.90
20759;DHT22;10539;53.686;9.158;2022-09-09T12:12:32;23.00;99.90
20759;DHT22;10539;53.686;9.158;2022-09-09T12:17:27;23.00;99.90
20759;DHT22;10539;53.686;9.158;2022-09-09T12:28:16;22.90;99.90
20759;DHT22;10539;53.686;9.158;2022-09-09T12:33:19;22.80;99.90
20759;DHT22;10539;53.686;9.158;2022-09-09T12:35:50;22.70;99.90
20759;DHT22;10539;53.686;9.158;2022-09-09T12:38:30;22.70;99.90
20759;DHT22;10539;53.686;9.158;2022-09-09T12:40:58;22.70;99.90
20759;DHT22;10539;53.686;9.158;2022-09-09T12:43:25;22.70;99.90
20759;DHT22;10539;53.686;9.158;2022-09-09T12:45:57;22.60;99.90
20759;DHT22;10539;53.686;9.158;2022-09-09T12:48:44;22.60;99.90
20759;DHT22;10539;53.686;9.158;2022-09-09T12:51:26;22.60;99.90
20759;DHT22;10539;53.686;9.158;2022-09-09T12:53:54;22.60;99.90
20759;DHT22;10539;53.686;9.158;2022-09-09T12:56:22;22.60;99.90
20759;DHT22;10539;53.686;9.158;2022-09-09T12:58:52;22.60;99.90
20759;DHT22;10539;53.686;9.158;2022-09-09T13:01:32;22.60;99.90
20759;DHT22;10539;53.686;9.158;2022-09-09T13:04:01;22.60;99.90
20759;DHT22;10539;53.686;9.158;2022-09-09T13:06:29;22.60;99.90
20759;DHT22;10539;53.686;9.158;2022-09-09T13:08:59;22.50;99.90
20759;DHT22;10539;53.686;9.158;2022-09-09T13:11:57;22.50;99.90
20759;DHT22;10539;53.686;9.158;2022-09-09T13:14:30;22.50;99.90
20759;DHT22;10539;53.686;9.158;2022-09-09T13:17:02;22.50;99.90
20759;DHT22;10539;53.686;9.158;2022-09-09T13:19:38;22.60;99.90
20759;DHT22;10539;53.686;9.158;2022-09-09T13:22:28;22.60;99.90
20759;DHT22;10539;53.686;9.158;2022-09-09T13:25:18;22.60;99.90
20759;DHT22;10539;53.686;9.158;2022-09-09T13:27:59;22.60;99.90
20759;DHT22;10539;53.686;9.158;2022-09-09T13:30:35;22.60;99.90
20759;DHT22;10539;53.686;9.158;2022-09-09T13:33:06;22.60;99.90
20759;DHT22;10539;53.686;9.158;2022-09-09T13:38:16;22.40;99.90
20759;DHT22;10539;53.686;9.158;2022-09-09T13:41:08;22.40;99.90
20759;DHT22;10539;53.686;9.158;2022-09-09T13:43:38;22.30;99.90
20759;DHT22;10539;53.686;9.158;2022-09-09T13:46:38;22.30;99.90
20759;DHT22;10539;53.686;9.158;2022-09-09T13:51:47;22.00;99.90
20759;DHT22;10539;53.686;9.158;2022-09-09T13:54:18;21.90;99.90
20759;DHT22;10539;53.686;9.158;2022-09-09T13:56:45;21.80;99.90
20759;DHT22;10539;53.686;9.158;2022-09-09T13:59:19;21.60;99.90
20759;DHT22;10539;53.686;9.158;2022-09-09T14:01:48;21.60;99.90
20759;DHT22;10539;53.686;9.158;2022-09-09T14:04:18;21.60;99.90
20759;DHT22;10539;53.686;9.158;2022-09-09T14:06:47;21.70;99.90
20759;DHT22;10539;53.686;9.158;2022-09-09T14:09:14;21.70;99.90
20759;DHT22;10539;53.686;9.158;2022-09-09T14:11:41;21.80;99.90
20759;DHT22;10539;53.686;9.158;2022-09-09T14:14:07;21.90;99.90
20759;DHT22;10539;53.686;9.158;2022-09-09T14:16:33;21.90;99.90
20759;DHT22;10539;53.686;9.158;2022-09-09T14:18:58;21.90;99.90
20759;DHT22;10539;53.686;9.158;2022-09-09T14:21:27;22.00;99.90
20759;DHT22;10539;53.686;9.158;2022-09-09T14:23:53;22.10;99.90
20759;DHT22;10539;53.686;9.158;2022-09-09T14:26:20;22.20;99.90
20759;DHT22;10539;53.686;9.158;2022-09-09T14:28:47;22.10;99.90
20759;DHT22;10539;53.686;9.158;2022-09-09T14:31:13;22.10;99.90
20759;DHT22;10539;53.686;9.158;2022-09-09T14:33:39;22.10;99.90
20759;DHT22;10539;53.686;9.158;2022-09-09T14:36:05;22.10;99.90
20759;DHT22;10539;53.686;9.158;2022-09-09T14:38:33;22.10;99.90
20759;DHT22;10539;53.686;9.158;2022-09-09T14:41:00;22.00;99.90
20759;DHT22;10539;53.686;9.158;2022-09-09T14:43:29;22.00;99.90
20759;DHT22;10539;53.686;9.158;2022-09-09T14:45:55;22.00;99.90
20759;DHT22;10539;53.686;9.158;2022-09-09T14:48:22;21.90;99.90
20759;DHT22;10539;53.686;9.158;2022-09-09T14:50:47;21.90;99.90
20759;DHT22;10539;53.686;9.158;2022-09-09T14:53:16;22.00;99.90
20759;DHT22;10539;53.686;9.158;2022-09-09T14:55:42;22.00;99.90
20759;DHT22;10539;53.686;9.158;2022-09-09T14:58:08;22.10;99.90
20759;DHT22;10539;53.686;9.158;2022-09-09T15:00:33;22.10;99.90
20759;DHT22;10539;53.686;9.158;2022-09-09T15:02:59;22.10;99.90
20759;DHT22;10539;53.686;9.158;2022-09-09T15:05:25;22.10;99.90
20759;DHT22;10539;53.686;9.158;2022-09-09T15:07:50;22.00;99.90
20759;DHT22;10539;53.686;9.158;2022-09-09T15:10:16;22.00;99.90
20759;DHT22;10539;53.686;9.158;2022-09-09T15:12:45;21.90;99.90
20759;DHT22;10539;53.686;9.158;2022-09-09T15:15:10;21.90;99.90
20759;DHT22;10539;53.686;9.158;2022-09-09T15:17:38;21.80;99.90
20759;DHT22;10539;53.686;9.158;2022-09-09T15:20:04;21.70;99.90
20759;DHT22;10539;53.686;9.158;2022-09-09T15:22:31;21.60;99.90
20759;DHT22;10539;53.686;9.158;2022-09-09T15:24:57;21.60;99.90
20759;DHT22;10539;53.686;9.158;2022-09-09T15:27:23;21.60;99.90
20759;DHT22;10539;53.686;9.158;2022-09-09T15:29:49;21.60;99.90
20759;DHT22;10539;53.686;9.158;2022-09-09T15:32:17;21.60;99.90
20759;DHT22;10539;53.686;9.158;2022-09-09T15:34:44;21.60;99.90
20759;DHT22;10539;53.686;9.158;2022-09-09T15:37:10;21.60;99.90
20759;DHT22;10539;53.686;9.158;2022-09-09T15:39:39;21.60;99.90
20759;DHT22;10539;53.686;9.158;2022-09-09T15:42:05;21.60;99.90
20759;DHT22;10539;53.686;9.158;2022-09-09T15:44:39;21.60;99.90
20759;DHT22;10539;53.686;9.158;2022-09-09T15:47:05;21.50;99.90
20759;DHT22;10539;53.686;9.158;2022-09-09T15:49:31;21.50;99.90
20759;DHT22;10539;53.686;9.158;2022-09-09T15:51:58;21.50;99.90
20759;DHT22;10539;53.686;9.158;2022-09-09T15:54:27;21.50;99.90
20759;DHT22;10539;53.686;9.158;2022-09-09T15:56:57;21.50;99.90
20759;DHT22;10539;53.686;9.158;2022-09-09T15:59:25;21.50;99.90
20759;DHT22;10539;53.686;9.158;2022-09-09T16:01:51;21.60;99.90
20759;DHT22;10539;53.686;9.158;2022-09-09T16:04:21;21.50;99.90
20759;DHT22;10539;53.686;9.158;2022-09-09T16:09:16;21.50;99.90
20759;DHT22;10539;53.686;9.158;2022-09-09T16:11:42;21.50;99.90
20759;DHT22;10539;53.686;9.158;2022-09-09T16:14:08;21.40;99.90
20759;DHT22;10539;53.686;9.158;2022-09-09T16:16:34;21.40;99.90
20759;DHT22;10539;53.686;9.158;2022-09-09T16:19:06;21.40;99.90
20759;DHT22;10539;53.686;9.158;2022-09-09T16:21:52;21.30;99.90
20759;DHT22;10539;53.686;9.158;2022-09-09T16:24:19;21.20;99.90
20759;DHT22;10539;53.686;9.158;2022-09-09T16:26:47;21.20;99.90
20759;DHT22;10539;53.686;9.158;2022-09-09T16:29:15;21.20;99.90
20759;DHT22;10539;53.686;9.158;2022-09-09T16:31:41;21.20;99.90
20759;DHT22;10539;53.686;9.158;2022-09-09T16:34:08;21.10;99.90
20759;DHT22;10539;53.686;9.158;2022-09-09T16:36:36;21.00;99.90
20759;DHT22;10539;53.686;9.158;2022-09-09T16:39:06;21.00;99.90
20759;DHT22;10539;53.686;9.158;2022-09-09T16:41:34;21.00;99.90
20759;DHT22;10539;53.686;9.158;2022-09-09T16:44:04;21.00;99.90
20759;DHT22;10539;53.686;9.158;2022-09-09T16:46:32;21.00;99.90
20759;DHT22;10539;53.686;9.158;2022-09-09T16:49:01;21.00;99.90
20759;DHT22;10539;53.686;9.158;2022-09-09T16:51:29;20.90;99.90
20759;DHT22;10539;53.686;9.158;2022-09-09T16:53:58;20.90;99.90
20759;DHT22;10539;53.686;9.158;2022-09-09T16:56:28;20.90;99.90
20759;DHT22;10539;53.686;9.158;2022-09-09T16:59:00;20.90;99.90
20759;DHT22;10539;53.686;9.158;2022-09-09T17:01:31;20.80;99.90
20759;DHT22;10539;53.686;9.158;2022-09-09T17:04:03;20.80;99.90
20759;DHT22;10539;53.686;9.158;2022-09-09T17:06:30;20.80;99.90
20759;DHT22;10539;53.686;9.158;2022-09-09T17:08:58;20.70;99.90
20759;DHT22;10539;53.686;9.158;2022-09-09T17:11:25;20.70;99.90
20759;DHT22;10539;53.686;9.158;2022-09-09T17:13:52;20.70;99.90
20759;DHT22;10539;53.686;9.158;2022-09-09T17:16:19;20.60;99.90
20759;DHT22;10539;53.686;9.158;2022-09-09T17:18:49;20.60;99.90
20759;DHT22;10539;53.686;9.158;2022-09-09T17:21:21;20.50;99.90
20759;DHT22;10539;53.686;9.158;2022-09-09T17:23:49;20.50;99.90
20759;DHT22;10539;53.686;9.158;2022-09-09T17:26:16;20.30;99.90
20759;DHT22;10539;53.686;9.158;2022-09-09T17:28:43;20.20;99.90
20759;DHT22;10539;53.686;9.158;2022-09-09T17:31:11;20.20;99.90
20759;DHT22;10539;53.686;9.158;2022-09-09T17:33:39;20.20;99.90
20759;DHT22;10539;53.686;9.158;2022-09-09T17:36:11;20.10;99.90
20759;DHT22;10539;53.686;9.158;2022-09-09T17:38:37;20.10;99.90
20759;DHT22;10539;53.686;9.158;2022-09-09T17:41:15;20.10;99.90
20759;DHT22;10539;53.686;9.158;2022-09-09T17:43:42;20.10;99.90
20759;DHT22;10539;53.686;9.158;2022-09-09T17:46:13;20.00;99.90
20759;DHT22;10539;53.686;9.158;2022-09-09T17:48:40;20.00;99.90
20759;DHT22;10539;53.686;9.158;2022-09-09T17:51:08;19.90;99.90
20759;DHT22;10539;53.686;9.158;2022-09-09T17:53:42;19.90;99.90
20759;DHT22;10539;53.686;9.158;2022-09-09T17:56:11;19.90;99.90
20759;DHT22;10539;53.686;9.158;2022-09-09T17:58:38;19.90;99.90
20759;DHT22;10539;53.686;9.158;2022-09-09T18:03:33;19.80;99.90
20759;DHT22;10539;53.686;9.158;2022-09-09T18:06:07;19.70;99.90